createdAt,value
2023-03-29T00:00:47.816Z, 36.74
2023-03-29T00:01:47.880Z, 36.70
2023-03-29T00:02:48.027Z, 36.72
2023-03-29T00:03:48.014Z, 36.72
2023-03-29T00:04:47.877Z, 36.70
2023-03-29T00:05:47.957Z, 36.67
2023-03-29T00:06:47.953Z, 36.71
2023-03-29T00:07:47.938Z, 36.69
2023-03-29T00:08:47.944Z, 36.70
2023-03-29T00:09:47.939Z, 36.72
2023-03-29T00:10:47.944Z, 36.72
2023-03-29T00:11:47.984Z, 36.66
2023-03-29T00:12:47.972Z, 36.66
2023-03-29T00:13:47.997Z, 36.65
2023-03-29T00:14:47.978Z, 36.64
2023-03-29T00:15:48.016Z, 36.66
2023-03-29T00:16:48.141Z, 36.65
2023-03-29T00:17:48.093Z, 36.60
2023-03-29T00:18:48.114Z, 36.61
2023-03-29T00:19:48.092Z, 36.64
2023-03-29T00:20:48.084Z, 36.62
2023-03-29T00:21:48.138Z, 36.57
2023-03-29T00:22:48.111Z, 36.58
2023-03-29T00:23:48.163Z, 36.53
2023-03-29T00:24:48.129Z, 36.51
2023-03-29T00:25:48.172Z, 36.54
2023-03-29T00:26:48.160Z, 36.54
2023-03-29T00:27:48.185Z, 36.49
2023-03-29T00:28:48.180Z, 36.50
2023-03-29T00:29:48.213Z, 36.49
2023-03-29T00:30:48.199Z, 36.47
2023-03-29T00:31:48.257Z, 36.47
2023-03-29T00:32:48.247Z, 36.44
2023-03-29T00:33:48.286Z, 36.45
2023-03-29T00:34:48.246Z, 36.46
2023-03-29T00:35:48.290Z, 36.47
2023-03-29T00:36:48.323Z, 36.46
2023-03-29T00:37:48.309Z, 36.45
2023-03-29T00:38:48.318Z, 36.44
2023-03-29T00:39:48.330Z, 36.43
2023-03-29T00:40:48.325Z, 36.37
2023-03-29T00:41:48.324Z, 36.41
2023-03-29T00:42:48.354Z, 36.37
2023-03-29T00:43:48.360Z, 36.36
2023-03-29T00:44:48.355Z, 36.34
2023-03-29T00:45:48.452Z, 36.34
2023-03-29T00:46:48.478Z, 36.34
2023-03-29T00:48:48.445Z, 36.34
2023-03-29T00:49:48.445Z, 36.31
2023-03-29T00:50:48.454Z, 36.29
2023-03-29T00:51:48.459Z, 36.31
2023-03-29T00:52:48.451Z, 36.32
2023-03-29T00:53:48.510Z, 36.32
2023-03-29T00:54:48.555Z, 36.33
2023-03-29T00:55:48.510Z, 36.30
2023-03-29T00:56:48.653Z, 36.25
2023-03-29T00:57:48.562Z, 36.23
2023-03-29T00:58:48.595Z, 36.24
2023-03-29T00:59:48.551Z, 36.21
2023-03-29T01:00:48.668Z, 36.19
2023-03-29T01:01:48.643Z, 36.19
2023-03-29T01:02:48.671Z, 36.17
2023-03-29T01:03:48.749Z, 36.18
2023-03-29T01:04:48.605Z, 36.24
2023-03-29T01:05:48.629Z, 36.21
2023-03-29T01:06:48.717Z, 36.18
2023-03-29T01:07:48.648Z, 36.11
2023-03-29T01:08:48.671Z, 36.12
2023-03-29T01:09:48.658Z, 36.10
2023-03-29T01:10:48.699Z, 36.06
2023-03-29T01:11:48.696Z, 36.08
2023-03-29T01:12:48.781Z, 36.13
2023-03-29T01:13:48.757Z, 36.15
2023-03-29T01:14:48.790Z, 36.14
2023-03-29T01:15:48.785Z, 36.08
2023-03-29T01:16:48.925Z, 36.07
2023-03-29T01:17:48.824Z, 36.08
2023-03-29T01:18:48.786Z, 36.07
2023-03-29T01:19:48.802Z, 36.08
2023-03-29T01:20:48.776Z, 36.10
2023-03-29T01:21:48.867Z, 36.07
2023-03-29T01:22:48.836Z, 36.04
2023-03-29T01:23:48.931Z, 36.03
2023-03-29T01:24:48.884Z, 36.04
2023-03-29T01:25:48.894Z, 36.07
2023-03-29T01:26:48.944Z, 36.08
2023-03-29T01:27:48.886Z, 36.04
2023-03-29T01:28:48.978Z, 35.98
2023-03-29T01:29:48.944Z, 36.00
2023-03-29T01:30:48.958Z, 36.00
2023-03-29T01:31:49.001Z, 36.00
2023-03-29T01:32:48.980Z, 35.96
2023-03-29T01:33:48.988Z, 35.97
2023-03-29T01:34:48.985Z, 35.94
2023-03-29T01:35:49.074Z, 35.96
2023-03-29T01:36:49.039Z, 35.94
2023-03-29T01:37:49.050Z, 35.91
2023-03-29T01:38:49.053Z, 35.91
2023-03-29T01:39:49.102Z, 35.90
2023-03-29T01:40:49.099Z, 35.90
2023-03-29T01:41:49.096Z, 35.84
2023-03-29T01:42:49.142Z, 35.84
2023-03-29T01:43:49.105Z, 35.85
2023-03-29T01:44:49.097Z, 35.87
2023-03-29T01:45:49.188Z, 35.83
2023-03-29T01:46:49.181Z, 35.81
2023-03-29T01:47:49.229Z, 35.83
2023-03-29T01:48:49.168Z, 35.80
2023-03-29T01:49:49.232Z, 35.81
2023-03-29T01:50:49.204Z, 35.78
2023-03-29T01:51:49.249Z, 35.78
2023-03-29T01:52:49.214Z, 35.76
2023-03-29T01:53:49.320Z, 35.78
2023-03-29T01:54:49.269Z, 35.76
2023-03-29T01:55:49.269Z, 35.73
2023-03-29T01:56:49.312Z, 35.71
2023-03-29T01:57:49.286Z, 35.71
2023-03-29T01:58:49.311Z, 35.72
2023-03-29T01:59:49.303Z, 35.73
2023-03-29T02:00:49.332Z, 35.76
2023-03-29T02:01:49.645Z, 35.74
2023-03-29T02:02:49.444Z, 35.75
2023-03-29T02:03:49.414Z, 35.75
2023-03-29T02:04:49.432Z, 35.72
2023-03-29T02:05:49.434Z, 35.68
2023-03-29T02:06:49.459Z, 35.64
2023-03-29T02:07:49.435Z, 35.67
2023-03-29T02:08:49.491Z, 35.65
2023-03-29T02:09:49.462Z, 35.64
2023-03-29T02:10:49.462Z, 35.61
2023-03-29T02:11:49.460Z, 35.61
2023-03-29T02:12:49.472Z, 35.62
2023-03-29T02:13:49.471Z, 35.56
2023-03-29T02:14:49.474Z, 35.55
2023-03-29T02:15:49.496Z, 35.55
2023-03-29T02:16:49.491Z, 35.57
2023-03-29T02:17:49.635Z, 35.54
2023-03-29T02:18:49.536Z, 35.55
2023-03-29T02:19:49.551Z, 35.55
2023-03-29T02:20:49.565Z, 35.56
2023-03-29T02:21:49.638Z, 35.54
2023-03-29T02:22:49.626Z, 35.54
2023-03-29T02:23:49.647Z, 35.53
2023-03-29T02:24:49.620Z, 35.57
2023-03-29T02:25:49.620Z, 35.52
2023-03-29T02:26:49.700Z, 35.51
2023-03-29T02:27:49.682Z, 35.52
2023-03-29T02:28:49.709Z, 35.52
2023-03-29T02:29:49.695Z, 35.53
2023-03-29T02:30:49.806Z, 35.53
2023-03-29T02:31:49.722Z, 35.50
2023-03-29T02:32:50.013Z, 35.51
2023-03-29T02:33:49.748Z, 35.50
2023-03-29T02:34:49.793Z, 35.50
2023-03-29T02:35:49.816Z, 35.42
2023-03-29T02:36:49.767Z, 35.40
2023-03-29T02:37:49.761Z, 35.40
2023-03-29T02:38:49.777Z, 35.39
2023-03-29T02:39:49.785Z, 35.38
2023-03-29T02:40:49.789Z, 35.34
2023-03-29T02:41:49.850Z, 35.34
2023-03-29T02:42:49.834Z, 35.33
2023-03-29T02:43:49.846Z, 35.37
2023-03-29T02:44:49.911Z, 35.36
2023-03-29T02:45:49.890Z, 35.38
2023-03-29T02:46:49.937Z, 35.38
2023-03-29T02:47:50.038Z, 35.37
2023-03-29T02:48:49.937Z, 35.37
2023-03-29T02:49:49.987Z, 35.34
2023-03-29T02:50:49.973Z, 35.33
2023-03-29T02:51:49.975Z, 35.34
2023-03-29T02:52:49.967Z, 35.34
2023-03-29T02:53:50.021Z, 35.36
2023-03-29T02:54:49.995Z, 35.30
2023-03-29T02:55:49.999Z, 35.29
2023-03-29T02:56:50.038Z, 35.28
2023-03-29T02:57:50.001Z, 35.29
2023-03-29T02:58:50.076Z, 35.29
2023-03-29T02:59:50.042Z, 35.26
2023-03-29T03:00:50.093Z, 35.29
2023-03-29T03:01:50.140Z, 35.25
2023-03-29T03:02:50.171Z, 35.22
2023-03-29T03:03:50.160Z, 35.21
2023-03-29T03:04:50.092Z, 35.20
2023-03-29T03:05:50.121Z, 35.22
2023-03-29T03:06:50.132Z, 35.21
2023-03-29T03:07:50.183Z, 35.19
2023-03-29T03:08:50.158Z, 35.16
2023-03-29T03:09:50.205Z, 35.15
2023-03-29T03:10:50.192Z, 35.13
2023-03-29T03:11:50.230Z, 35.14
2023-03-29T03:12:50.222Z, 35.18
2023-03-29T03:13:50.252Z, 35.20
2023-03-29T03:14:50.221Z, 35.18
2023-03-29T03:15:50.345Z, 35.13
2023-03-29T03:16:50.498Z, 35.10
2023-03-29T03:17:50.315Z, 35.11
2023-03-29T03:18:50.293Z, 35.11
2023-03-29T03:19:50.282Z, 35.09
2023-03-29T03:20:50.363Z, 35.09
2023-03-29T03:21:50.322Z, 35.06
2023-03-29T03:22:50.403Z, 35.04
2023-03-29T03:23:50.399Z, 35.04
2023-03-29T03:24:50.417Z, 35.04
2023-03-29T03:25:50.401Z, 35.05
2023-03-29T03:26:50.431Z, 35.06
2023-03-29T03:27:50.445Z, 35.01
2023-03-29T03:28:50.473Z, 35.02
2023-03-29T03:29:50.424Z, 35.00
2023-03-29T03:30:50.461Z, 35.04
2023-03-29T03:31:52.509Z, 36.03
2023-03-29T03:32:50.506Z, 37.72
2023-03-29T03:33:50.480Z, 39.01
2023-03-29T03:34:50.470Z, 39.82
2023-03-29T03:35:50.591Z, 40.39
2023-03-29T03:36:50.503Z, 40.88
2023-03-29T03:37:50.539Z, 41.27
2023-03-29T03:38:50.540Z, 41.61
2023-03-29T03:39:50.564Z, 41.96
2023-03-29T03:40:50.556Z, 42.22
2023-03-29T03:41:50.590Z, 42.48
2023-03-29T03:42:50.587Z, 42.69
2023-03-29T03:43:50.764Z, 42.94
2023-03-29T03:44:50.609Z, 43.18
2023-03-29T03:45:50.723Z, 43.39
2023-03-29T03:46:50.700Z, 43.52
2023-03-29T03:47:50.747Z, 43.70
2023-03-29T03:48:50.731Z, 43.88
2023-03-29T03:49:50.695Z, 43.95
2023-03-29T03:50:50.742Z, 44.07
2023-03-29T03:51:52.639Z, 44.15
2023-03-29T03:52:50.739Z, 44.22
2023-03-29T03:53:50.759Z, 44.28
2023-03-29T03:54:50.792Z, 44.33
2023-03-29T03:55:50.760Z, 44.40
2023-03-29T03:56:50.817Z, 44.43
2023-03-29T03:57:50.762Z, 44.46
2023-03-29T03:58:50.772Z, 44.48
2023-03-29T03:59:50.770Z, 44.57
2023-03-29T04:00:50.807Z, 44.46
2023-03-29T04:01:50.805Z, 45.10
2023-03-29T04:02:50.867Z, 50.72
2023-03-29T04:03:50.895Z, 53.58
2023-03-29T04:04:50.828Z, 56.44
2023-03-29T04:05:50.908Z, 59.58
2023-03-29T04:06:50.886Z, 68.48
2023-03-29T04:07:50.892Z, 57.57
2023-03-29T04:08:50.938Z, 53.82
2023-03-29T04:09:50.888Z, 54.59
2023-03-29T04:10:50.937Z, 56.15
2023-03-29T04:11:50.928Z, 59.16
2023-03-29T04:12:51.019Z, 68.95
2023-03-29T04:13:50.999Z, 63.40
2023-03-29T04:14:51.053Z, 56.10
2023-03-29T04:15:51.065Z, 55.05
2023-03-29T04:16:51.034Z, 56.22
2023-03-29T04:17:51.041Z, 58.08
2023-03-29T04:18:51.048Z, 61.48
2023-03-29T04:19:51.014Z, 68.81
2023-03-29T04:20:51.021Z, 59.54
2023-03-29T04:21:51.045Z, 55.10
2023-03-29T04:22:51.064Z, 55.31
2023-03-29T04:23:51.135Z, 55.84
2023-03-29T04:24:51.116Z, 56.63
2023-03-29T04:25:51.105Z, 57.05
2023-03-29T04:26:51.111Z, 56.05
2023-03-29T04:27:51.119Z, 54.76
2023-03-29T04:28:51.159Z, 53.73
2023-03-29T04:29:51.155Z, 53.10
2023-03-29T04:30:51.242Z, 52.66
2023-03-29T04:31:51.241Z, 52.19
2023-03-29T04:32:51.295Z, 51.72
2023-03-29T04:33:51.238Z, 51.31
2023-03-29T04:34:51.268Z, 50.97
2023-03-29T04:35:51.272Z, 50.65
2023-03-29T04:36:51.303Z, 50.36
2023-03-29T04:37:51.284Z, 50.10
2023-03-29T04:38:51.320Z, 49.86
2023-03-29T04:39:51.290Z, 49.65
2023-03-29T04:40:51.316Z, 49.49
2023-03-29T04:41:51.362Z, 49.38
2023-03-29T04:42:51.345Z, 49.27
2023-03-29T04:43:51.369Z, 49.15
2023-03-29T04:44:51.397Z, 49.03
2023-03-29T04:45:51.408Z, 48.90
2023-03-29T04:46:51.407Z, 48.76
2023-03-29T04:47:51.413Z, 48.61
2023-03-29T04:48:51.382Z, 48.50
2023-03-29T04:49:51.371Z, 48.40
2023-03-29T04:50:51.396Z, 48.29
2023-03-29T04:51:51.413Z, 48.18
2023-03-29T04:52:51.514Z, 48.10
2023-03-29T04:53:51.478Z, 47.99
2023-03-29T04:54:51.513Z, 47.88
2023-03-29T04:55:51.504Z, 47.79
2023-03-29T04:56:51.545Z, 47.70
2023-03-29T04:57:51.511Z, 47.58
2023-03-29T04:58:51.573Z, 47.45
2023-03-29T04:59:51.549Z, 47.39
2023-03-29T05:00:51.577Z, 47.32
2023-03-29T05:01:51.609Z, 47.19
2023-03-29T05:02:51.614Z, 47.10
2023-03-29T05:03:51.605Z, 47.01
2023-03-29T05:04:51.584Z, 46.94
2023-03-29T05:05:51.589Z, 46.81
2023-03-29T05:06:51.597Z, 46.69
2023-03-29T05:07:51.615Z, 46.61
2023-03-29T05:08:51.641Z, 46.55
2023-03-29T05:09:51.674Z, 46.50
2023-03-29T05:10:51.656Z, 46.41
2023-03-29T05:11:51.653Z, 46.33
2023-03-29T05:12:51.731Z, 46.25
2023-03-29T05:13:51.708Z, 46.19
2023-03-29T05:14:51.715Z, 46.11
2023-03-29T05:15:51.759Z, 46.05
2023-03-29T05:16:51.735Z, 45.97
2023-03-29T05:17:51.814Z, 45.81
2023-03-29T05:18:51.791Z, 45.69
2023-03-29T05:19:51.841Z, 45.50
2023-03-29T05:20:51.824Z, 45.28
2023-03-29T05:21:51.817Z, 45.05
2023-03-29T05:22:51.824Z, 44.88
2023-03-29T05:23:51.831Z, 44.72
2023-03-29T05:24:51.908Z, 44.61
2023-03-29T05:25:51.888Z, 44.54
2023-03-29T05:26:51.950Z, 44.45
2023-03-29T05:27:51.907Z, 44.35
2023-03-29T05:28:51.921Z, 44.27
2023-03-29T05:29:51.909Z, 44.23
2023-03-29T05:30:51.919Z, 44.11
2023-03-29T05:31:52.017Z, 44.07
2023-03-29T05:32:52.063Z, 43.97
2023-03-29T05:33:51.971Z, 43.89
2023-03-29T05:34:51.989Z, 43.83
2023-03-29T05:35:51.982Z, 43.73
2023-03-29T05:36:51.962Z, 43.66
2023-03-29T05:37:51.989Z, 43.57
2023-03-29T05:38:52.013Z, 43.54
2023-03-29T05:39:52.017Z, 43.48
2023-03-29T05:40:52.023Z, 43.39
2023-03-29T05:41:52.097Z, 43.43
2023-03-29T05:42:52.093Z, 43.33
2023-03-29T05:43:52.114Z, 43.28
2023-03-29T05:44:54.478Z, 43.26
2023-03-29T05:45:52.158Z, 43.20
2023-03-29T05:46:52.161Z, 43.14
2023-03-29T05:47:52.184Z, 43.04
2023-03-29T05:48:52.205Z, 43.05
2023-03-29T05:49:52.152Z, 43.00
2023-03-29T05:50:52.236Z, 42.95
2023-03-29T05:51:52.216Z, 42.97
2023-03-29T05:52:52.236Z, 42.92
2023-03-29T05:53:52.252Z, 42.88
2023-03-29T05:54:52.222Z, 42.86
2023-03-29T05:55:52.228Z, 42.85
2023-03-29T05:56:52.241Z, 42.79
2023-03-29T05:57:52.249Z, 42.78
2023-03-29T05:58:54.846Z, 42.74
2023-03-29T05:59:52.271Z, 42.69
2023-03-29T06:00:52.316Z, 42.67
2023-03-29T06:01:52.292Z, 42.66
2023-03-29T06:02:52.531Z, 42.58
2023-03-29T06:03:52.646Z, 42.59
2023-03-29T06:04:52.346Z, 42.50
2023-03-29T06:05:52.331Z, 42.48
2023-03-29T06:06:52.386Z, 42.47
2023-03-29T06:07:52.409Z, 42.46
2023-03-29T06:08:52.399Z, 42.47
2023-03-29T06:09:52.425Z, 42.44
2023-03-29T06:10:52.426Z, 42.42
2023-03-29T06:11:52.422Z, 42.37
2023-03-29T06:12:52.568Z, 42.38
2023-03-29T06:13:52.478Z, 42.38
2023-03-29T06:14:52.469Z, 42.38
2023-03-29T06:15:52.489Z, 42.36
2023-03-29T06:16:52.543Z, 42.35
2023-03-29T06:17:52.608Z, 42.24
2023-03-29T06:18:52.559Z, 42.19
2023-03-29T06:19:52.567Z, 42.14
2023-03-29T06:20:52.577Z, 42.16
2023-03-29T06:21:52.569Z, 42.16
2023-03-29T06:22:52.562Z, 42.13
2023-03-29T06:23:52.621Z, 42.13
2023-03-29T06:24:52.584Z, 42.11
2023-03-29T06:25:52.606Z, 42.17
2023-03-29T06:26:52.602Z, 42.14
2023-03-29T06:27:52.601Z, 42.15
2023-03-29T06:28:52.691Z, 42.11
2023-03-29T06:29:52.665Z, 42.06
2023-03-29T06:30:52.754Z, 42.03
2023-03-29T06:31:52.693Z, 41.96
2023-03-29T06:32:52.728Z, 41.99
2023-03-29T06:33:52.721Z, 41.96
2023-03-29T06:34:52.709Z, 41.94
2023-03-29T06:35:52.803Z, 41.98
2023-03-29T06:36:52.734Z, 42.01
2023-03-29T06:37:52.773Z, 41.92
2023-03-29T06:38:52.824Z, 41.86
2023-03-29T06:39:53.367Z, 41.94
2023-03-29T06:40:52.811Z, 41.89
2023-03-29T06:41:52.830Z, 41.84
2023-03-29T06:42:52.822Z, 41.84
2023-03-29T06:43:52.854Z, 41.85
2023-03-29T06:44:52.909Z, 41.80
2023-03-29T06:45:52.960Z, 41.78
2023-03-29T06:46:52.997Z, 41.79
2023-03-29T06:47:52.913Z, 41.77
2023-03-29T06:48:52.961Z, 41.75
2023-03-29T06:49:52.906Z, 41.64
2023-03-29T06:50:52.955Z, 41.61
2023-03-29T06:51:52.948Z, 41.73
2023-03-29T06:52:52.939Z, 41.69
2023-03-29T06:53:52.961Z, 41.64
2023-03-29T06:54:52.967Z, 41.68
2023-03-29T06:55:53.057Z, 41.66
2023-03-29T06:56:53.112Z, 41.62
2023-03-29T06:57:53.031Z, 41.61
2023-03-29T06:58:53.092Z, 41.60
2023-03-29T06:59:53.070Z, 41.58
2023-03-29T07:00:53.074Z, 41.55
2023-03-29T07:01:53.155Z, 41.54
2023-03-29T07:02:53.160Z, 41.54
2023-03-29T07:03:53.186Z, 41.50
2023-03-29T07:04:53.117Z, 41.43
2023-03-29T07:05:53.188Z, 41.47
2023-03-29T07:06:53.169Z, 41.45
2023-03-29T07:07:53.166Z, 41.43
2023-03-29T07:08:53.229Z, 41.37
2023-03-29T07:09:53.223Z, 41.34
2023-03-29T07:10:53.232Z, 41.37
2023-03-29T07:11:53.218Z, 41.40
2023-03-29T07:12:53.226Z, 41.35
2023-03-29T07:13:53.247Z, 41.26
2023-03-29T07:14:53.236Z, 41.27
2023-03-29T07:15:53.433Z, 41.30
2023-03-29T07:16:53.258Z, 41.27
2023-03-29T07:17:53.371Z, 41.30
2023-03-29T07:18:53.307Z, 41.31
2023-03-29T07:19:53.357Z, 41.28
2023-03-29T07:20:53.321Z, 41.20
2023-03-29T07:21:53.375Z, 41.21
2023-03-29T07:22:53.328Z, 41.19
2023-03-29T07:23:53.337Z, 41.16
2023-03-29T07:24:53.361Z, 41.18
2023-03-29T07:25:53.724Z, 41.13
2023-03-29T07:27:03.515Z, 41.12
2023-03-29T07:27:53.386Z, 41.10
2023-03-29T07:28:53.470Z, 41.09
2023-03-29T07:29:53.446Z, 41.09
2023-03-29T07:30:53.513Z, 41.13
2023-03-29T07:31:53.487Z, 41.13
2023-03-29T07:32:53.713Z, 41.06
2023-03-29T07:33:53.703Z, 41.08
2023-03-29T07:34:53.505Z, 41.08
2023-03-29T07:35:53.649Z, 41.04
2023-03-29T07:36:53.549Z, 41.04
2023-03-29T07:37:53.599Z, 41.00
2023-03-29T07:38:56.297Z, 40.98
2023-03-29T07:39:53.611Z, 40.95
2023-03-29T07:40:53.579Z, 40.90
2023-03-29T07:41:53.574Z, 40.87
2023-03-29T07:42:53.583Z, 40.88
2023-03-29T07:43:53.616Z, 40.89
2023-03-29T07:44:53.597Z, 40.80
2023-03-29T07:45:53.657Z, 40.77
2023-03-29T07:46:53.620Z, 40.79
2023-03-29T07:47:53.645Z, 40.77
2023-03-29T07:48:53.697Z, 40.82
2023-03-29T07:49:53.666Z, 40.79
2023-03-29T07:50:53.669Z, 40.79
2023-03-29T07:51:53.690Z, 40.70
2023-03-29T07:52:53.702Z, 40.70
2023-03-29T07:53:53.738Z, 40.70
2023-03-29T07:54:53.730Z, 40.68
2023-03-29T07:55:53.788Z, 40.69
2023-03-29T07:56:53.829Z, 40.61
2023-03-29T07:57:53.779Z, 40.69
2023-03-29T07:58:53.858Z, 40.63
2023-03-29T07:59:53.828Z, 40.67
2023-03-29T08:00:53.887Z, 40.67
2023-03-29T08:01:53.830Z, 40.64
2023-03-29T08:02:53.888Z, 40.60
2023-03-29T08:03:54.027Z, 40.56
2023-03-29T08:04:54.003Z, 40.60
2023-03-29T08:05:53.968Z, 40.54
2023-03-29T08:06:53.917Z, 40.54
2023-03-29T08:07:53.950Z, 40.53
2023-03-29T08:08:53.932Z, 40.46
2023-03-29T08:09:53.928Z, 40.57
2023-03-29T08:10:53.937Z, 40.60
2023-03-29T08:11:53.927Z, 40.52
2023-03-29T08:12:53.987Z, 40.48
2023-03-29T08:13:53.949Z, 40.47
2023-03-29T08:14:54.015Z, 40.47
2023-03-29T08:15:54.001Z, 40.52
2023-03-29T08:16:54.037Z, 40.56
2023-03-29T08:17:54.032Z, 40.50
2023-03-29T08:18:54.014Z, 40.47
2023-03-29T08:19:54.037Z, 40.53
2023-03-29T08:20:54.057Z, 40.49
2023-03-29T08:21:54.136Z, 40.41
2023-03-29T08:22:54.119Z, 40.42
2023-03-29T08:23:54.141Z, 40.36
2023-03-29T08:24:54.137Z, 40.42
2023-03-29T08:25:54.197Z, 40.39
2023-03-29T08:26:54.163Z, 40.38
2023-03-29T08:27:54.165Z, 40.34
2023-03-29T08:28:54.166Z, 40.35
2023-03-29T08:29:54.179Z, 40.33
2023-03-29T08:30:54.270Z, 40.29
2023-03-29T08:31:54.224Z, 40.36
2023-03-29T08:32:55.391Z, 40.33
2023-03-29T08:33:54.261Z, 40.31
2023-03-29T08:34:54.260Z, 40.26
2023-03-29T08:35:54.303Z, 40.17
2023-03-29T08:36:54.278Z, 40.21
2023-03-29T08:37:54.270Z, 40.25
2023-03-29T08:38:54.294Z, 40.17
2023-03-29T08:39:54.355Z, 40.10
2023-03-29T08:40:54.346Z, 40.13
2023-03-29T08:41:54.372Z, 40.18
2023-03-29T08:42:54.343Z, 40.15
2023-03-29T08:43:54.398Z, 40.20
2023-03-29T08:44:54.380Z, 40.16
2023-03-29T08:45:54.463Z, 40.16
2023-03-29T08:46:54.446Z, 40.17
2023-03-29T08:47:54.523Z, 40.17
2023-03-29T08:48:54.454Z, 40.10
2023-03-29T08:49:54.427Z, 40.05
2023-03-29T08:50:54.440Z, 40.09
2023-03-29T08:51:54.484Z, 40.09
2023-03-29T08:52:54.472Z, 40.11
2023-03-29T08:53:54.481Z, 40.13
2023-03-29T08:54:54.480Z, 40.08
2023-03-29T08:55:54.501Z, 40.07
2023-03-29T08:56:54.630Z, 40.07
2023-03-29T08:57:54.547Z, 39.99
2023-03-29T08:58:54.543Z, 40.02
2023-03-29T08:59:54.584Z, 39.99
2023-03-29T09:00:54.552Z, 40.01
2023-03-29T09:01:54.678Z, 39.95
2023-03-29T09:02:54.687Z, 39.91
2023-03-29T09:03:54.743Z, 39.92
2023-03-29T09:04:54.619Z, 39.95
2023-03-29T09:05:54.616Z, 39.92
2023-03-29T09:06:54.649Z, 39.90
2023-03-29T09:07:54.637Z, 39.95
2023-03-29T09:08:54.713Z, 39.95
2023-03-29T09:09:54.683Z, 39.96
2023-03-29T09:10:54.725Z, 39.88
2023-03-29T09:11:54.701Z, 39.86
2023-03-29T09:12:54.837Z, 39.83
2023-03-29T09:13:54.739Z, 39.80
2023-03-29T09:14:54.804Z, 39.82
2023-03-29T09:15:54.813Z, 39.80
2023-03-29T09:16:54.806Z, 39.80
2023-03-29T09:17:54.824Z, 39.76
2023-03-29T09:18:54.847Z, 39.76
2023-03-29T09:19:54.814Z, 39.76
2023-03-29T09:20:54.839Z, 39.78
2023-03-29T09:21:54.817Z, 39.80
2023-03-29T09:22:54.907Z, 39.72
2023-03-29T09:23:55.771Z, 39.70
2023-03-29T09:24:54.935Z, 39.74
2023-03-29T09:25:54.892Z, 39.76
2023-03-29T09:26:54.902Z, 39.72
2023-03-29T09:27:54.896Z, 39.73
2023-03-29T09:28:54.896Z, 39.66
2023-03-29T09:29:54.906Z, 39.66
2023-03-29T09:30:54.907Z, 39.68
2023-03-29T09:31:55.032Z, 39.67
2023-03-29T09:32:54.973Z, 39.62
2023-03-29T09:33:54.981Z, 39.63
2023-03-29T09:34:54.969Z, 39.64
2023-03-29T09:35:55.078Z, 39.64
2023-03-29T09:36:55.020Z, 39.64
2023-03-29T09:37:55.036Z, 39.60
2023-03-29T09:38:55.011Z, 39.61
2023-03-29T09:39:55.025Z, 39.61
2023-03-29T09:40:55.037Z, 39.63
2023-03-29T09:41:55.057Z, 39.63
2023-03-29T09:42:55.131Z, 39.63
2023-03-29T09:43:55.104Z, 39.57
2023-03-29T09:44:55.138Z, 39.53
2023-03-29T09:45:55.214Z, 39.49
2023-03-29T09:46:55.178Z, 39.45
2023-03-29T09:47:55.210Z, 39.49
2023-03-29T09:48:55.189Z, 39.45
2023-03-29T09:49:55.178Z, 39.49
2023-03-29T09:50:55.179Z, 39.47
2023-03-29T09:51:55.237Z, 39.43
2023-03-29T09:52:55.205Z, 39.43
2023-03-29T09:53:55.221Z, 39.42
2023-03-29T09:54:55.212Z, 39.43
2023-03-29T09:55:55.228Z, 39.37
2023-03-29T09:56:55.280Z, 39.34
2023-03-29T09:57:55.243Z, 39.29
2023-03-29T09:58:55.244Z, 39.32
2023-03-29T09:59:55.253Z, 39.35
2023-03-29T10:00:55.347Z, 39.47
2023-03-29T10:01:55.454Z, 40.65
2023-03-29T10:02:55.419Z, 41.44
2023-03-29T10:03:55.382Z, 41.56
2023-03-29T10:04:55.400Z, 41.71
2023-03-29T10:05:55.360Z, 41.73
2023-03-29T10:06:55.428Z, 41.67
2023-03-29T10:07:55.411Z, 41.61
2023-03-29T10:08:55.432Z, 41.56
2023-03-29T10:09:55.410Z, 41.50
2023-03-29T10:10:55.419Z, 41.43
2023-03-29T10:11:55.417Z, 41.41
2023-03-29T10:12:55.441Z, 41.39
2023-03-29T10:13:55.461Z, 41.31
2023-03-29T10:14:55.484Z, 41.28
2023-03-29T10:15:55.558Z, 41.24
2023-03-29T10:16:55.571Z, 41.21
2023-03-29T10:17:55.592Z, 41.15
2023-03-29T10:18:55.536Z, 41.10
2023-03-29T10:19:55.603Z, 41.02
2023-03-29T10:20:55.586Z, 41.01
2023-03-29T10:21:55.572Z, 40.92
2023-03-29T10:22:55.622Z, 40.85
2023-03-29T10:23:55.596Z, 40.79
2023-03-29T10:24:55.595Z, 40.70
2023-03-29T10:25:55.604Z, 40.64
2023-03-29T10:26:55.801Z, 40.59
2023-03-29T10:27:55.680Z, 40.55
2023-03-29T10:28:55.647Z, 40.46
2023-03-29T10:29:55.687Z, 40.44
2023-03-29T10:30:55.693Z, 40.34
2023-03-29T10:31:55.819Z, 40.10
2023-03-29T10:32:55.775Z, 39.97
2023-03-29T10:33:55.765Z, 39.91
2023-03-29T10:34:55.746Z, 39.74
2023-03-29T10:35:55.763Z, 39.51
2023-03-29T10:36:55.747Z, 39.31
2023-03-29T10:37:55.769Z, 39.17
2023-03-29T10:38:55.845Z, 39.04
2023-03-29T10:39:55.802Z, 38.94
2023-03-29T10:40:55.807Z, 38.88
2023-03-29T10:41:55.828Z, 38.79
2023-03-29T10:42:55.818Z, 38.73
2023-03-29T10:43:55.907Z, 38.66
2023-03-29T10:44:55.860Z, 38.64
2023-03-29T10:45:55.982Z, 38.58
2023-03-29T10:46:55.878Z, 38.54
2023-03-29T10:47:55.922Z, 38.50
2023-03-29T10:48:55.893Z, 38.50
2023-03-29T10:49:56.982Z, 38.43
2023-03-29T10:50:55.924Z, 38.38
2023-03-29T10:51:55.918Z, 38.34
2023-03-29T10:52:55.978Z, 38.25
2023-03-29T10:53:55.958Z, 38.16
2023-03-29T10:54:56.038Z, 38.12
2023-03-29T10:55:56.005Z, 38.12
2023-03-29T10:56:56.034Z, 38.06
2023-03-29T10:57:56.018Z, 37.98
2023-03-29T10:58:56.027Z, 37.91
2023-03-29T10:59:56.090Z, 37.93
2023-03-29T11:00:56.076Z, 37.90
2023-03-29T11:01:56.143Z, 37.89
2023-03-29T11:02:56.212Z, 37.85
2023-03-29T11:03:56.203Z, 37.83
2023-03-29T11:04:56.096Z, 37.81
2023-03-29T11:05:56.106Z, 37.82
2023-03-29T11:06:56.171Z, 37.80
2023-03-29T11:07:56.154Z, 37.77
2023-03-29T11:08:56.164Z, 37.73
2023-03-29T11:09:56.159Z, 37.74
2023-03-29T11:10:56.227Z, 37.68
2023-03-29T11:12:08.306Z, 37.68
2023-03-29T11:12:56.201Z, 37.64
2023-03-29T11:13:58.672Z, 37.64
2023-03-29T11:14:56.214Z, 37.63
2023-03-29T11:15:56.277Z, 37.64
2023-03-29T11:16:56.217Z, 37.57
2023-03-29T11:17:56.317Z, 37.57
2023-03-29T11:18:56.319Z, 37.57
2023-03-29T11:19:56.296Z, 37.55
2023-03-29T11:20:56.293Z, 37.51
2023-03-29T11:21:56.351Z, 37.47
2023-03-29T11:22:56.326Z, 37.49
2023-03-29T11:23:56.358Z, 37.52
2023-03-29T11:24:56.336Z, 37.47
2023-03-29T11:25:56.346Z, 37.45
2023-03-29T11:26:56.358Z, 37.43
2023-03-29T11:27:56.426Z, 37.42
2023-03-29T11:28:56.403Z, 37.36
2023-03-29T11:29:56.401Z, 37.38
2023-03-29T11:30:56.438Z, 37.33
2023-03-29T11:31:56.552Z, 37.33
2023-03-29T11:32:56.552Z, 37.32
2023-03-29T11:33:56.485Z, 37.34
2023-03-29T11:34:56.535Z, 37.35
2023-03-29T11:35:56.621Z, 37.31
2023-03-29T11:36:56.539Z, 37.29
2023-03-29T11:37:56.523Z, 37.28
2023-03-29T11:38:56.524Z, 37.28
2023-03-29T11:39:56.599Z, 37.28
2023-03-29T11:40:56.552Z, 37.25
2023-03-29T11:41:56.610Z, 37.24
2023-03-29T11:42:56.622Z, 37.28
2023-03-29T11:43:56.598Z, 37.31
2023-03-29T11:44:56.602Z, 37.26
2023-03-29T11:45:56.597Z, 37.22
2023-03-29T11:46:56.651Z, 37.20
2023-03-29T11:47:56.668Z, 37.20
2023-03-29T11:48:56.645Z, 37.10
2023-03-29T11:49:56.654Z, 37.15
2023-03-29T11:50:56.726Z, 37.16
2023-03-29T11:51:56.706Z, 37.12
2023-03-29T11:52:56.739Z, 37.11
2023-03-29T11:53:56.720Z, 37.13
2023-03-29T11:54:56.862Z, 37.10
2023-03-29T11:55:56.726Z, 37.06
2023-03-29T11:56:56.782Z, 37.09
2023-03-29T11:57:56.747Z, 37.11
2023-03-29T11:58:56.750Z, 37.11
2023-03-29T11:59:56.849Z, 37.11
2023-03-29T12:00:56.807Z, 37.06
2023-03-29T12:01:56.870Z, 37.01
2023-03-29T12:02:56.870Z, 37.03
2023-03-29T12:03:56.906Z, 37.07
2023-03-29T12:04:56.863Z, 37.05
2023-03-29T12:05:56.879Z, 37.03
2023-03-29T12:06:56.858Z, 37.06
2023-03-29T12:07:56.943Z, 37.09
2023-03-29T12:08:56.886Z, 37.07
2023-03-29T12:09:56.931Z, 37.08
2023-03-29T12:10:56.910Z, 37.02
2023-03-29T12:11:56.934Z, 37.07
2023-03-29T12:12:57.006Z, 37.03
2023-03-29T12:13:56.982Z, 37.06
2023-03-29T12:14:56.978Z, 37.05
2023-03-29T12:15:56.973Z, 37.05
2023-03-29T12:16:57.105Z, 37.03
2023-03-29T12:17:57.055Z, 37.04
2023-03-29T12:18:57.078Z, 37.05
2023-03-29T12:19:57.077Z, 37.00
2023-03-29T12:20:57.085Z, 36.99
2023-03-29T12:21:57.081Z, 37.02
2023-03-29T12:22:57.074Z, 36.98
2023-03-29T12:23:57.138Z, 36.95
2023-03-29T12:24:57.127Z, 36.92
2023-03-29T12:25:57.170Z, 36.92
2023-03-29T12:26:57.122Z, 36.87
2023-03-29T12:27:57.190Z, 36.92
2023-03-29T12:28:57.166Z, 36.89
2023-03-29T12:29:57.209Z, 36.83